createdAt,value
2023-01-13T00:00:45.540Z,45.95
2023-01-13T00:03:11.967Z,46.07
2023-01-13T00:05:38.351Z,46.01
2023-01-13T00:08:06.252Z,46.07
2023-01-13T00:10:33.494Z,46.01
2023-01-13T00:12:59.909Z,45.92
2023-01-13T00:15:26.346Z,45.83
2023-01-13T00:17:52.675Z,45.92
2023-01-13T00:20:19.402Z,45.87
2023-01-13T00:22:45.849Z,45.92
2023-01-13T00:25:12.599Z,45.87
2023-01-13T00:27:39.391Z,46.00
2023-01-13T00:30:06.529Z,46.04
2023-01-13T00:32:33.423Z,46.08
2023-01-13T00:34:59.843Z,46.00
2023-01-13T00:37:26.651Z,46.16
2023-01-13T00:39:53.060Z,46.01
2023-01-13T00:42:38.366Z,46.14
2023-01-13T00:45:05.063Z,46.28
2023-01-13T00:47:31.668Z,46.17
2023-01-13T00:49:57.995Z,45.98
2023-01-13T00:52:24.325Z,46.16
2023-01-13T00:54:50.685Z,46.09
2023-01-13T00:57:17.011Z,46.04
2023-01-13T00:59:43.438Z,46.11
2023-01-13T01:02:09.890Z,46.19
2023-01-13T01:04:36.413Z,46.11
2023-01-13T01:07:02.853Z,46.19
2023-01-13T01:09:32.718Z,46.05
2023-01-13T01:11:59.821Z,46.04
2023-01-13T01:14:27.194Z,46.00
2023-01-13T01:16:54.416Z,46.27
2023-01-13T01:19:20.739Z,46.23
2023-01-13T01:21:47.192Z,46.16
2023-01-13T01:24:13.544Z,46.12
2023-01-13T01:26:42.849Z,46.25
2023-01-13T01:29:12.013Z,46.19
2023-01-13T01:31:38.396Z,46.22
2023-01-13T01:34:04.837Z,46.14
2023-01-13T01:36:31.301Z,46.33
2023-01-13T01:38:58.518Z,46.07
2023-01-13T01:41:27.786Z,46.13
2023-01-13T01:44:08.004Z,46.18
2023-01-13T01:46:44.396Z,46.23
2023-01-13T01:49:10.792Z,46.25
2023-01-13T01:51:41.730Z,46.32
2023-01-13T01:54:10.293Z,46.13
2023-01-13T01:56:37.162Z,46.25
2023-01-13T01:59:03.607Z,46.31
2023-01-13T02:01:30.108Z,46.17
2023-01-13T02:03:59.375Z,46.16
2023-01-13T02:06:27.041Z,46.21
2023-01-13T02:08:54.036Z,46.26
2023-01-13T02:11:52.651Z,46.20
2023-01-13T02:14:20.752Z,46.16
2023-01-13T02:16:59.419Z,46.11
2023-01-13T02:19:42.024Z,46.20
2023-01-13T02:22:08.338Z,46.08
2023-01-13T02:24:56.365Z,46.29
2023-01-13T02:27:41.567Z,46.22
2023-01-13T02:30:32.232Z,46.17
2023-01-13T02:33:17.378Z,46.37
2023-01-13T02:35:43.682Z,46.23
2023-01-13T02:38:11.127Z,46.09
2023-01-13T02:40:50.438Z,46.21
2023-01-13T02:43:44.541Z,46.14
2023-01-13T02:46:15.394Z,46.17
2023-01-13T02:48:44.208Z,46.06
2023-01-13T02:51:13.862Z,46.09
2023-01-13T02:53:46.111Z,46.12
2023-01-13T02:56:15.008Z,46.04
2023-01-13T02:58:43.744Z,46.04
2023-01-13T03:01:10.241Z,46.05
2023-01-13T03:03:36.861Z,46.21
2023-01-13T03:06:06.496Z,46.08
2023-01-13T03:08:53.127Z,46.12
2023-01-13T03:11:20.390Z,46.24
2023-01-13T03:13:46.791Z,46.27
2023-01-13T03:16:19.323Z,46.26
2023-01-13T03:18:50.819Z,46.44
2023-01-13T03:21:35.979Z,46.20
2023-01-13T03:24:22.039Z,46.18
2023-01-13T03:27:00.462Z,46.33
2023-01-13T03:29:31.908Z,46.23
2023-01-13T03:32:05.590Z,46.34
2023-01-13T03:34:35.062Z,46.45
2023-01-13T03:37:03.660Z,46.29
2023-01-13T03:39:32.827Z,46.47
2023-01-13T03:42:02.213Z,46.36
2023-01-13T03:44:38.596Z,46.49
2023-01-13T03:47:11.264Z,46.54
2023-01-13T03:49:41.186Z,46.51
2023-01-13T03:52:09.973Z,46.42
2023-01-13T03:54:41.911Z,46.49
2023-01-13T03:57:10.589Z,46.39
2023-01-13T03:59:40.166Z,46.48
2023-01-13T04:02:35.983Z,46.39
2023-01-13T04:05:06.578Z,46.38
2023-01-13T04:07:39.409Z,46.42
2023-01-13T04:10:07.639Z,46.35
2023-01-13T04:13:01.898Z,46.35
2023-01-13T04:15:33.592Z,46.25
2023-01-13T04:18:15.219Z,46.34
2023-01-13T04:20:42.569Z,46.27
2023-01-13T04:23:09.216Z,46.35
2023-01-13T04:25:36.016Z,46.39
2023-01-13T04:28:02.909Z,46.32
2023-01-13T04:30:29.251Z,46.27
2023-01-13T04:32:55.633Z,46.14
2023-01-13T04:35:22.016Z,46.10
2023-01-13T04:37:48.573Z,46.13
2023-01-13T04:40:14.991Z,45.83
2023-01-13T04:42:43.126Z,45.94
2023-01-13T04:45:09.767Z,46.08
2023-01-13T04:47:36.120Z,46.09
2023-01-13T04:50:02.591Z,46.21
2023-01-13T04:52:29.038Z,46.17
2023-01-13T04:54:55.431Z,46.20
2023-01-13T04:57:21.814Z,46.04
2023-01-13T04:59:48.221Z,46.11
2023-01-13T05:02:19.996Z,46.07
2023-01-13T05:04:47.386Z,46.08
2023-01-13T05:07:14.671Z,46.08
2023-01-13T05:09:41.096Z,46.11
2023-01-13T05:12:26.335Z,46.23
2023-01-13T05:15:11.230Z,46.10
2023-01-13T05:17:37.775Z,46.10
2023-01-13T05:20:04.606Z,46.07
2023-01-13T05:22:49.725Z,46.06
2023-01-13T05:25:22.019Z,46.05
2023-01-13T05:27:49.167Z,46.10
2023-01-13T05:30:16.386Z,46.12
2023-01-13T05:32:43.205Z,45.94
2023-01-13T05:35:09.677Z,46.07
2023-01-13T05:37:36.347Z,45.96
2023-01-13T05:40:21.570Z,45.91
2023-01-13T05:43:06.508Z,45.95
2023-01-13T05:45:32.903Z,46.07
2023-01-13T05:47:59.288Z,45.95
2023-01-13T05:50:25.708Z,46.03
2023-01-13T05:52:52.116Z,46.08
2023-01-13T05:55:18.547Z,46.19
2023-01-13T05:57:44.992Z,46.11
2023-01-13T06:00:11.621Z,46.17
2023-01-13T06:02:38.030Z,46.01
2023-01-13T06:05:04.584Z,46.11
2023-01-13T06:07:31.016Z,45.93
2023-01-13T06:09:57.367Z,45.99
2023-01-13T06:12:23.746Z,45.95
2023-01-13T06:14:50.206Z,46.28
2023-01-13T06:17:16.642Z,46.12
2023-01-13T06:19:43.050Z,46.02
2023-01-13T06:22:21.663Z,45.98
2023-01-13T06:24:49.569Z,46.07
2023-01-13T06:27:16.732Z,45.97
2023-01-13T06:29:43.255Z,46.01
2023-01-13T06:32:13.094Z,45.93
2023-01-13T06:34:41.144Z,46.28
2023-01-13T06:37:07.762Z,46.11
2023-01-13T06:39:35.909Z,46.12
2023-01-13T06:42:21.551Z,46.11
2023-01-13T06:44:48.788Z,46.10
2023-01-13T06:47:15.153Z,46.19
2023-01-13T06:49:41.535Z,46.10
2023-01-13T06:52:07.923Z,45.98
2023-01-13T06:54:34.728Z,46.11
2023-01-13T06:57:01.966Z,45.98
2023-01-13T06:59:28.393Z,45.90
2023-01-13T07:01:55.005Z,45.80
2023-01-13T07:04:21.463Z,45.82
2023-01-13T07:06:47.844Z,45.82
2023-01-13T07:09:14.416Z,45.83
2023-01-13T07:11:40.864Z,45.88
2023-01-13T07:14:26.019Z,45.80
2023-01-13T07:16:53.654Z,45.97
2023-01-13T07:19:23.743Z,46.01
2023-01-13T07:21:52.744Z,45.88
2023-01-13T07:24:19.319Z,45.85
2023-01-13T07:26:46.111Z,45.87
2023-01-13T07:29:12.649Z,45.85
2023-01-13T07:31:39.889Z,45.92
2023-01-13T07:34:07.282Z,45.86
2023-01-13T07:36:33.711Z,45.84
2023-01-13T07:39:00.170Z,45.90
2023-01-13T07:41:45.336Z,45.84
2023-01-13T07:44:11.826Z,46.02
2023-01-13T07:46:40.276Z,46.09
2023-01-13T07:49:07.905Z,45.96
2023-01-13T07:51:38.647Z,46.04
2023-01-13T07:54:05.561Z,45.90
2023-01-13T07:56:32.015Z,45.94
2023-01-13T07:59:01.723Z,45.82
2023-01-13T08:01:29.176Z,45.70
2023-01-13T08:03:56.278Z,45.77
2023-01-13T08:06:22.819Z,45.74
2023-01-13T08:08:50.105Z,45.74
2023-01-13T08:11:23.746Z,45.78
2023-01-13T08:13:57.280Z,45.67
2023-01-13T08:16:25.130Z,45.65
2023-01-13T08:18:53.043Z,45.63
2023-01-13T08:21:24.511Z,45.44
2023-01-13T08:24:08.324Z,45.54
2023-01-13T08:26:43.916Z,45.58
2023-01-13T08:29:14.669Z,45.53
2023-01-13T08:31:43.517Z,45.52
2023-01-13T08:34:14.789Z,45.44
2023-01-13T08:36:49.120Z,45.54
2023-01-13T08:42:24.941Z,45.48
2023-01-13T08:44:54.146Z,45.47
2023-01-13T08:47:22.274Z,45.32
2023-01-13T08:50:11.536Z,45.34
2023-01-13T08:55:20.473Z,45.37
2023-01-13T08:57:47.157Z,45.19
2023-01-13T09:00:13.910Z,45.31
2023-01-13T09:02:40.353Z,45.64
2023-01-13T09:05:07.320Z,46.02
2023-01-13T09:07:35.173Z,46.18
2023-01-13T09:10:02.142Z,46.49
2023-01-13T09:12:47.429Z,46.65
2023-01-13T09:15:14.173Z,46.60
2023-01-13T09:17:40.699Z,46.87
2023-01-13T09:20:07.420Z,46.85
2023-01-13T09:22:36.488Z,47.07
2023-01-13T09:25:03.549Z,46.96
2023-01-13T09:27:30.184Z,47.11
2023-01-13T09:29:56.860Z,47.01
2023-01-13T09:32:23.425Z,46.89
2023-01-13T09:35:02.007Z,46.79
2023-01-13T09:37:38.867Z,46.98
2023-01-13T09:40:07.070Z,46.77
2023-01-13T09:43:00.421Z,46.80
2023-01-13T09:46:02.170Z,46.53
2023-01-13T09:48:31.793Z,46.30
2023-01-13T09:51:03.236Z,46.42
2023-01-13T09:53:36.741Z,46.19
2023-01-13T09:56:03.337Z,46.11
2023-01-13T09:58:29.856Z,46.05
2023-01-13T10:01:08.702Z,45.96
2023-01-13T10:03:35.555Z,45.92
2023-01-13T10:06:16.640Z,45.78
2023-01-13T10:08:44.407Z,45.63
2023-01-13T10:11:39.352Z,45.77
2023-01-13T10:14:11.851Z,45.57
2023-01-13T10:16:45.846Z,45.65
2023-01-13T10:19:16.785Z,45.53
2023-01-13T10:21:55.107Z,45.63
2023-01-13T10:24:29.695Z,45.44
2023-01-13T10:27:19.062Z,45.40
2023-01-13T10:29:45.595Z,45.41
2023-01-13T10:32:12.087Z,45.28
2023-01-13T10:34:50.910Z,45.28
2023-01-13T10:37:25.965Z,45.23
2023-01-13T10:39:55.303Z,45.09
2023-01-13T10:42:23.857Z,45.06
2023-01-13T10:44:54.663Z,45.06
2023-01-13T10:47:24.131Z,44.89
2023-01-13T10:50:01.299Z,44.80
2023-01-13T10:52:29.176Z,44.73
2023-01-13T10:54:55.959Z,44.78
2023-01-13T10:57:27.086Z,44.66
2023-01-13T10:59:54.774Z,44.63
2023-01-13T11:02:27.630Z,44.63
2023-01-13T11:04:54.208Z,44.44
2023-01-13T11:07:20.592Z,44.52
2023-01-13T11:09:47.055Z,44.57
2023-01-13T11:12:33.474Z,44.48
2023-01-13T11:15:07.732Z,44.34
2023-01-13T11:17:45.318Z,44.39
2023-01-13T11:20:11.690Z,44.28
2023-01-13T11:22:45.347Z,44.31
2023-01-13T11:25:16.278Z,44.32
2023-01-13T11:27:44.241Z,44.26
2023-01-13T11:30:10.784Z,44.19
2023-01-13T11:32:40.890Z,44.28
2023-01-13T11:35:16.359Z,44.17
2023-01-13T11:37:45.410Z,44.04
2023-01-13T11:40:23.823Z,43.97
2023-01-13T11:42:59.937Z,43.92
2023-01-13T11:45:34.095Z,44.04
2023-01-13T11:48:01.655Z,43.96
2023-01-13T11:50:34.479Z,43.99
2023-01-13T11:53:16.074Z,43.71
2023-01-13T11:55:51.774Z,44.00
2023-01-13T11:58:24.457Z,43.85
2023-01-13T12:00:57.455Z,43.86
2023-01-13T12:03:31.183Z,43.84
2023-01-13T12:06:15.899Z,43.62
2023-01-13T12:08:59.528Z,43.58
2023-01-13T12:11:33.514Z,43.42
2023-01-13T12:14:19.343Z,43.42
2023-01-13T12:16:49.579Z,43.34
2023-01-13T12:19:16.004Z,43.42
2023-01-13T12:21:45.482Z,43.35
2023-01-13T12:24:23.043Z,43.30
2023-01-13T12:26:54.433Z,43.15
2023-01-13T12:29:26.718Z,43.12
2023-01-13T12:31:53.610Z,43.11
2023-01-13T12:34:22.780Z,43.22
2023-01-13T12:36:52.061Z,43.12
2023-01-13T12:39:51.104Z,42.88
2023-01-13T12:42:36.168Z,42.92
2023-01-13T12:45:07.422Z,42.74
2023-01-13T12:47:38.328Z,42.70
2023-01-13T12:50:36.458Z,42.68
2023-01-13T12:53:29.314Z,42.85
2023-01-13T12:56:15.634Z,42.64
2023-01-13T12:58:42.094Z,42.68
2023-01-13T13:01:13.036Z,42.62
2023-01-13T13:03:39.733Z,42.58
2023-01-13T13:06:08.052Z,42.58
2023-01-13T13:08:43.569Z,42.25
2023-01-13T13:11:33.019Z,42.36
2023-01-13T13:14:00.507Z,42.40
2023-01-13T13:16:27.512Z,42.38
2023-01-13T13:19:14.777Z,42.41
2023-01-13T13:21:59.976Z,42.55
2023-01-13T13:24:26.657Z,42.48
2023-01-13T13:26:57.574Z,42.33
2023-01-13T13:29:48.547Z,42.38
2023-01-13T13:32:27.600Z,42.30
2023-01-13T13:35:12.636Z,42.27
2023-01-13T13:38:04.020Z,42.06
2023-01-13T13:40:51.293Z,42.20
2023-01-13T13:43:38.618Z,42.21
2023-01-13T13:46:40.735Z,42.05
2023-01-13T13:49:07.184Z,42.08
2023-01-13T13:51:39.187Z,41.77
2023-01-13T13:54:10.315Z,41.85
2023-01-13T13:56:40.664Z,41.83
2023-01-13T13:59:11.059Z,41.62
2023-01-13T14:01:41.364Z,41.77
2023-01-13T14:04:11.024Z,41.77
2023-01-13T14:06:43.457Z,41.70
2023-01-13T14:09:16.910Z,41.60
2023-01-13T14:11:43.290Z,41.50
2023-01-13T14:14:13.818Z,41.31
2023-01-13T14:16:41.053Z,41.31
2023-01-13T14:19:22.565Z,41.30
2023-01-13T14:21:48.954Z,41.20
2023-01-13T14:24:16.145Z,41.13
2023-01-13T14:26:42.568Z,41.07
2023-01-13T14:29:13.446Z,41.09
2023-01-13T14:31:40.357Z,41.04
2023-01-13T14:34:30.559Z,41.15
2023-01-13T14:36:54.535Z,41.06
2023-01-13T14:39:25.255Z,41.03
2023-01-13T14:41:52.985Z,41.02
2023-01-13T14:44:26.821Z,40.92
2023-01-13T14:46:57.228Z,40.77
2023-01-13T14:49:46.681Z,40.75
2023-01-13T14:52:18.957Z,40.94
2023-01-13T14:54:45.409Z,40.93
2023-01-13T14:57:16.207Z,40.95
2023-01-13T14:59:56.185Z,40.85
2023-01-13T15:02:25.664Z,40.78
2023-01-13T15:04:57.743Z,40.69
2023-01-13T15:07:28.242Z,40.67
2023-01-13T15:10:02.466Z,40.65
2023-01-13T15:12:31.949Z,40.69
2023-01-13T15:14:58.693Z,40.62
2023-01-13T15:17:25.096Z,40.55
2023-01-13T15:19:53.273Z,40.46
2023-01-13T15:22:19.679Z,40.44
2023-01-13T15:24:46.842Z,40.30
2023-01-13T15:27:22.350Z,40.32
2023-01-13T15:29:49.043Z,40.25
2023-01-13T15:32:19.737Z,40.41
2023-01-13T15:34:46.900Z,40.41
2023-01-13T15:37:17.080Z,40.21
2023-01-13T15:39:45.731Z,40.27
2023-01-13T15:42:31.440Z,40.08
2023-01-13T15:45:16.423Z,40.12
2023-01-13T15:47:43.943Z,40.20
2023-01-13T15:50:14.017Z,40.17
2023-01-13T15:52:40.433Z,40.03
2023-01-13T15:55:06.941Z,40.04
2023-01-13T15:57:34.684Z,40.16
2023-01-13T16:00:04.024Z,40.07
2023-01-13T16:02:31.115Z,39.99
2023-01-13T16:04:57.574Z,40.01
2023-01-13T16:07:25.077Z,39.88
2023-01-13T16:09:52.012Z,39.92
2023-01-13T16:12:18.494Z,40.02
2023-01-13T16:14:45.027Z,40.05
2023-01-13T16:17:18.829Z,39.98
2023-01-13T16:19:45.557Z,39.98
2023-01-13T16:22:14.207Z,39.87
2023-01-13T16:24:41.057Z,39.80
2023-01-13T16:27:18.639Z,39.77
2023-01-13T16:30:01.189Z,39.70
2023-01-13T16:32:27.677Z,39.47
2023-01-13T16:34:54.096Z,39.61
2023-01-13T16:37:21.859Z,39.57
2023-01-13T16:39:48.328Z,39.44
2023-01-13T16:42:14.736Z,39.57
2023-01-13T16:44:41.235Z,39.60
2023-01-13T16:47:12.772Z,39.40
2023-01-13T16:49:39.192Z,39.49
2023-01-13T16:52:05.584Z,39.48
2023-01-13T16:54:31.986Z,39.49
2023-01-13T16:56:58.494Z,39.37
2023-01-13T16:59:24.931Z,39.31
2023-01-13T17:01:51.944Z,39.15
2023-01-13T17:04:19.451Z,39.09
2023-01-13T17:06:48.912Z,39.21
2023-01-13T17:09:17.172Z,39.14
2023-01-13T17:11:43.655Z,39.27
2023-01-13T17:14:18.577Z,38.88
2023-01-13T17:16:46.332Z,38.84
2023-01-13T17:19:13.330Z,38.95
2023-01-13T17:21:40.424Z,39.08
2023-01-13T17:24:07.952Z,39.36
2023-01-13T17:26:37.189Z,39.24
2023-01-13T17:29:08.709Z,39.18
2023-01-13T17:31:35.583Z,39.03
2023-01-13T17:34:02.918Z,39.01
2023-01-13T17:36:29.326Z,39.27
2023-01-13T17:38:56.318Z,39.24
2023-01-13T17:41:23.178Z,39.46
2023-01-13T17:43:49.661Z,39.41
2023-01-13T17:46:19.753Z,39.51
2023-01-13T17:48:46.870Z,39.45
2023-01-13T17:51:14.379Z,39.36
2023-01-13T17:53:40.963Z,39.35
2023-01-13T17:56:08.487Z,39.31
2023-01-13T17:58:35.214Z,39.12
2023-01-13T18:01:06.548Z,39.18
2023-01-13T18:03:32.989Z,39.24
2023-01-13T18:06:07.039Z,39.14
2023-01-13T18:08:33.468Z,39.22
2023-01-13T18:11:00.803Z,39.23
2023-01-13T18:13:28.184Z,39.23
2023-01-13T18:16:03.130Z,39.17
2023-01-13T18:18:29.676Z,39.12
2023-01-13T18:21:14.967Z,39.09
2023-01-13T18:23:59.895Z,39.12
2023-01-13T18:26:46.301Z,39.06
2023-01-13T18:29:12.742Z,39.32
2023-01-13T18:31:39.137Z,39.28
2023-01-13T18:34:05.513Z,39.25
2023-01-13T18:36:31.846Z,39.35
2023-01-13T18:38:58.809Z,39.41
2023-01-13T18:41:48.441Z,39.27
2023-01-13T18:44:14.845Z,39.34
2023-01-13T18:46:41.301Z,39.32
2023-01-13T18:49:07.770Z,39.23
2023-01-13T18:51:34.186Z,39.34
2023-01-13T18:54:00.945Z,39.53
2023-01-13T18:56:27.351Z,39.70
2023-01-13T18:58:56.475Z,39.80
2023-01-13T19:01:25.725Z,40.02
2023-01-13T19:03:59.519Z,39.94
2023-01-13T19:06:27.755Z,40.17
2023-01-13T19:08:55.516Z,40.16
2023-01-13T19:11:23.048Z,40.22
2023-01-13T19:13:50.350Z,40.17
2023-01-13T19:16:25.841Z,39.91
2023-01-13T19:18:52.223Z,39.82
2023-01-13T19:21:18.670Z,39.85
2023-01-13T19:23:45.264Z,39.80
2023-01-13T19:26:12.305Z,39.69
2023-01-13T19:28:40.175Z,39.67
2023-01-13T19:31:10.426Z,39.57
2023-01-13T19:33:38.154Z,39.69
2023-01-13T19:36:05.309Z,39.61
2023-01-13T19:38:31.946Z,39.67
2023-01-13T19:40:59.524Z,39.68
2023-01-13T19:43:45.138Z,39.65
2023-01-13T19:46:11.830Z,39.66
2023-01-13T19:48:38.792Z,39.62
2023-01-13T19:51:06.190Z,39.59
2023-01-13T19:53:32.693Z,39.66
2023-01-13T19:55:59.296Z,39.54
2023-01-13T19:58:26.306Z,39.52
2023-01-13T20:00:53.802Z,39.50
2023-01-13T20:03:24.216Z,39.69
2023-01-13T20:05:51.518Z,39.61
2023-01-13T20:08:18.596Z,39.67
2023-01-13T20:10:46.019Z,39.70
2023-01-13T20:13:12.459Z,39.72
2023-01-13T20:15:39.925Z,39.72
2023-01-13T20:18:06.667Z,39.74
2023-01-13T20:20:33.185Z,39.61
2023-01-13T20:22:59.825Z,39.73
2023-01-13T20:25:28.792Z,39.57
2023-01-13T20:27:56.364Z,39.71
2023-01-13T20:30:23.486Z,39.65
2023-01-13T20:32:50.239Z,39.69
2023-01-13T20:35:17.229Z,39.67
2023-01-13T20:37:43.772Z,39.61
2023-01-13T20:40:15.082Z,39.55
2023-01-13T20:42:47.609Z,39.57
2023-01-13T20:45:17.665Z,39.56
2023-01-13T20:47:45.201Z,39.50
2023-01-13T20:50:12.335Z,39.50
2023-01-13T20:52:39.084Z,39.73
2023-01-13T20:55:06.493Z,39.62
2023-01-13T20:57:33.152Z,39.77
2023-01-13T20:59:59.771Z,39.75
2023-01-13T21:02:26.258Z,39.66
2023-01-13T21:04:52.785Z,39.76
2023-01-13T21:07:19.246Z,39.62
2023-01-13T21:09:45.729Z,39.70
2023-01-13T21:12:34.441Z,39.76
2023-01-13T21:15:19.852Z,39.77
2023-01-13T21:18:05.754Z,39.77
2023-01-13T21:20:33.581Z,39.79
2023-01-13T21:23:01.287Z,39.80
2023-01-13T21:25:27.915Z,39.67
2023-01-13T21:27:55.509Z,39.67
2023-01-13T21:30:22.746Z,39.83
2023-01-13T21:32:49.807Z,39.79
2023-01-13T21:35:16.327Z,39.88
2023-01-13T21:37:43.336Z,39.66
2023-01-13T21:40:11.311Z,39.73
2023-01-13T21:42:56.279Z,39.88
2023-01-13T21:45:41.147Z,39.75
2023-01-13T21:48:08.451Z,39.85
2023-01-13T21:50:36.293Z,39.98
2023-01-13T21:53:02.690Z,39.90
2023-01-13T21:55:29.435Z,40.19
2023-01-13T21:57:57.365Z,41.16
2023-01-13T22:00:25.536Z,40.87
2023-01-13T22:02:52.796Z,40.76
2023-01-13T22:05:20.982Z,40.74
2023-01-13T22:07:47.473Z,40.68
2023-01-13T22:10:15.185Z,40.51
2023-01-13T22:12:43.242Z,40.51
2023-01-13T22:15:10.214Z,40.55
2023-01-13T22:17:36.572Z,40.58
2023-01-13T22:20:03.936Z,40.67
2023-01-13T22:22:36.446Z,40.52
2023-01-13T22:25:08.097Z,40.47
2023-01-13T22:27:40.973Z,40.46
2023-01-13T22:30:08.710Z,40.41
2023-01-13T22:32:36.332Z,40.42
2023-01-13T22:35:03.187Z,40.44
2023-01-13T22:37:29.611Z,40.37
2023-01-13T22:39:56.061Z,40.39
2023-01-13T22:42:22.477Z,40.28
2023-01-13T22:44:48.945Z,40.36
2023-01-13T22:47:15.366Z,40.32
2023-01-13T22:49:43.112Z,40.58
2023-01-13T22:52:09.523Z,40.37
2023-01-13T22:54:35.863Z,40.42
2023-01-13T22:57:02.253Z,40.41
2023-01-13T22:59:28.603Z,40.37
2023-01-13T23:01:54.942Z,40.49
2023-01-13T23:04:21.412Z,40.58
2023-01-13T23:06:47.949Z,40.52
2023-01-13T23:09:14.394Z,40.59
2023-01-13T23:11:41.247Z,40.74
2023-01-13T23:14:09.053Z,40.74
2023-01-13T23:16:37.144Z,40.77
2023-01-13T23:19:04.417Z,40.92
2023-01-13T23:21:32.183Z,40.79
2023-01-13T23:23:59.046Z,40.91
2023-01-13T23:26:26.229Z,40.78
2023-01-13T23:28:52.667Z,40.80
2023-01-13T23:31:20.434Z,40.92
2023-01-13T23:33:47.242Z,41.00
2023-01-13T23:36:18.127Z,40.84
2023-01-13T23:38:45.025Z,40.91
2023-01-13T23:41:13.725Z,40.92
2023-01-13T23:43:40.420Z,40.99
2023-01-13T23:46:07.976Z,40.97
2023-01-13T23:48:35.233Z,40.99
2023-01-13T23:51:02.825Z,40.96
2023-01-13T23:53:33.432Z,41.00
2023-01-13T23:56:01.275Z,40.94
2023-01-13T23:58:28.540Z,41.09
